Terminal Aerodrome Forecast
Issued by NWS

Home | Current Version | Previous Version | Text Only | Print | Product List | Glossary On
Versions: 1 2 3 4 5 6 7 8 9 10 11 12 13 14 15 16 17 18 19 20 21 22 23 24 25 26 27 28 29 30 31 32 33 34
000
FTUS45 KBOU 301741
TAFBJC
TAF
KBJC 301741Z 3018/3118 VRB05KT P6SM FEW080 SCT140 BKN250
     FM301900 15007KT P6SM SCT080 SCT130 BKN200
     FM302300 10010KT P6SM VCTS SCT080CB BKN130
      TEMPO 3100/3103 VRB25G38KT BKN080CB
     FM310400 17011KT P6SM VCSH SCT090 BKN140
     FM310800 25007KT P6SM SCT090 BKN130
     FM311400 31009KT P6SM VCSH SCT080 BKN120=

USA.gov is the U.S. government's official web portal to all federal, state and local government web resources and services.